Time;durP1;ratioP1;P1;durP2;ratioP2;P2;SDS_P1;SDS_P2;PMS_P1;PMS_P2;Temp;Humidity;BMP_temperature;BMP_pressure;BME280_temperature;BME280_humidity;BME280_pressure;Samples;Min_cycle;Max_cycle;Signal;HPM_P1;HPM_P2
2023/05/30 00:01:18;;;;;;;0.50;0.50;;;;;;;18.57;100.00;99197.88;4970846;28;20200;-65
2023/05/30 00:03:46;;;;;;;0.43;0.43;;;;;;;18.56;100.00;99204.81;4970583;28;20221;-65
2023/05/30 00:06:14;;;;;;;0.50;0.50;;;;;;;18.52;100.00;99200.75;4970674;28;20714;-65
2023/05/30 00:08:41;;;;;;;0.80;0.80;;;;;;;18.47;100.00;99202.81;4971710;28;20196;-66
2023/05/30 00:11:08;;;;;;;0.53;0.53;;;;;;;18.39;100.00;99197.25;4970978;28;20296;-65
2023/05/30 00:13:35;;;;;;;0.60;0.60;;;;;;;18.32;100.00;99204.63;4970836;28;20208;-66
2023/05/30 00:16:03;;;;;;;0.53;0.53;;;;;;;18.17;100.00;99179.66;4971026;28;20593;-65
2023/05/30 00:18:34;;;;;;;0.60;0.60;;;;;;;18.27;100.00;99196.31;4970733;28;20683;-65
2023/05/30 00:21:03;;;;;;;0.50;0.50;;;;;;;18.26;100.00;99193.81;4970649;28;20211;-65
2023/05/30 00:23:31;;;;;;;0.50;0.50;;;;;;;18.24;100.00;99193.06;4969590;28;20666;-66
2023/05/30 00:25:59;;;;;;;0.40;0.40;;;;;;;18.23;100.00;99204.38;4970383;28;20270;-66
2023/05/30 00:28:26;;;;;;;0.67;0.67;;;;;;;18.16;100.00;99203.09;4971949;28;20201;-65
2023/05/30 00:30:53;;;;;;;0.60;0.60;;;;;;;18.07;100.00;99182.94;4974380;28;20690;-66
2023/05/30 00:33:21;;;;;;;0.50;0.50;;;;;;;18.15;100.00;99196.28;4974387;28;20207;-65
2023/05/30 00:35:47;;;;;;;0.40;0.40;;;;;;;18.07;100.00;99188.13;4971929;28;20200;-65
2023/05/30 00:38:15;;;;;;;0.40;0.40;;;;;;;18.13;100.00;99187.72;4975088;28;20214;-65
2023/05/30 00:40:43;;;;;;;0.60;0.60;;;;;;;18.21;100.00;99198.47;4974824;28;20211;-65
2023/05/30 00:43:10;;;;;;;0.40;0.40;;;;;;;18.20;100.00;99194.19;4974259;28;20219;-65
2023/05/30 00:45:36;;;;;;;0.60;0.60;;;;;;;18.21;100.00;99201.06;4974430;28;20203;-65
2023/05/30 00:48:05;;;;;;;0.60;0.60;;;;;;;18.23;100.00;99204.38;4974212;28;20219;-65
2023/05/30 00:50:33;;;;;;;0.50;0.50;;;;;;;18.29;100.00;99203.97;4974052;28;20200;-65
2023/05/30 00:53:01;;;;;;;0.40;0.40;;;;;;;18.37;100.00;99206.94;4974504;28;20207;-65
2023/05/30 00:55:28;;;;;;;0.43;0.43;;;;;;;18.42;100.00;99204.84;4971816;28;20211;-65
2023/05/30 00:57:57;;;;;;;0.60;0.60;;;;;;;18.44;100.00;99207.34;4975262;28;20207;-65
2023/05/30 01:00:26;;;;;;;0.50;0.50;;;;;;;18.46;100.00;99201.13;4974202;28;20243;-65
2023/05/30 01:02:57;;;;;;;0.40;0.40;;;;;;;18.44;100.00;99200.41;4972737;28;20232;-65
2023/05/30 01:05:24;;;;;;;0.50;0.50;;;;;;;18.48;100.00;99199.25;4973584;28;20259;-65
2023/05/30 01:07:52;;;;;;;0.50;0.50;;;;;;;18.38;100.00;99179.22;4973759;28;20287;-65
2023/05/30 01:10:19;;;;;;;0.40;0.40;;;;;;;18.46;100.00;99205.47;4973110;28;20261;-65
2023/05/30 01:12:59;;;;;;;0.50;0.50;;;;;;;18.44;100.00;99200.41;4973805;28;20203;-65
2023/05/30 01:15:32;;;;;;;0.40;0.40;;;;;;;18.46;100.00;99206.31;4973564;28;20207;-65
2023/05/30 01:18:04;;;;;;;0.50;0.50;;;;;;;18.47;100.00;99207.16;4973817;28;20299;-65
2023/05/30 01:20:35;;;;;;;0.50;0.50;;;;;;;18.49;100.00;99206.13;4972451;28;20254;-65
2023/05/30 01:23:20;;;;;;;0.50;0.50;;;;;;;18.53;100.00;99201.59;4973205;28;20692;-65
2023/05/30 01:26:08;;;;;;;0.53;0.53;;;;;;;18.56;100.00;99207.41;4973244;28;20330;-65
2023/05/30 01:28:38;;;;;;;0.50;0.50;;;;;;;18.57;100.00;99214.28;4972657;28;20618;-66
2023/05/30 01:31:09;;;;;;;0.50;0.50;;;;;;;18.55;100.00;99200.56;4973353;28;20206;-66
2023/05/30 01:33:37;;;;;;;0.50;0.50;;;;;;;18.65;100.00;99206.81;4973719;28;20199;-66
2023/05/30 01:36:04;;;;;;;0.50;0.50;;;;;;;18.69;100.00;99199.66;4973448;28;20683;-65
2023/05/30 01:38:31;;;;;;;0.70;0.70;;;;;;;18.72;100.00;99205.47;4973397;28;20229;-66
2023/05/30 01:41:00;;;;;;;0.53;0.53;;;;;;;18.76;100.00;99204.34;4972878;28;20216;-65
2023/05/30 01:43:41;;;;;;;0.50;0.50;;;;;;;18.78;100.00;99205.06;4973094;28;20315;-66
2023/05/30 01:46:22;;;;;;;0.40;0.40;;;;;;;18.81;100.00;99207.44;4970874;28;20220;-65
2023/05/30 01:48:58;;;;;;;0.37;0.37;;;;;;;18.77;100.00;99211.19;4972421;28;20202;-65
2023/05/30 01:51:30;;;;;;;0.50;0.50;;;;;;;18.72;100.00;99204.63;4972976;28;20204;-65
2023/05/30 01:54:00;;;;;;;0.50;0.50;;;;;;;18.43;100.00;99165.00;4972307;28;20207;-65
2023/05/30 01:56:28;;;;;;;0.47;0.47;;;;;;;18.71;100.00;99211.59;4970418;28;20205;-65
2023/05/30 01:58:57;;;;;;;0.50;0.50;;;;;;;18.72;100.00;99208.06;4973048;28;20228;-65
2023/05/30 02:01:29;;;;;;;0.50;0.50;;;;;;;18.74;100.00;99206.19;4972673;28;20252;-65
2023/05/30 02:03:55;;;;;;;0.57;0.57;;;;;;;18.75;100.00;99213.06;4972990;28;20289;-65
2023/05/30 02:06:23;;;;;;;0.63;0.63;;;;;;;18.73;100.00;99204.56;4972982;28;20213;-66
2023/05/30 02:08:50;;;;;;;0.50;0.50;;;;;;;18.72;100.00;99207.22;4973126;28;20638;-65
2023/05/30 02:11:17;;;;;;;0.47;0.47;;;;;;;18.54;100.00;99183.34;4972074;28;20212;-66
2023/05/30 02:13:45;;;;;;;0.50;0.50;;;;;;;18.67;100.00;99204.97;4972709;28;20296;-65
2023/05/30 02:16:13;;;;;;;0.40;0.40;;;;;;;18.55;100.00;99195.34;4972470;28;20261;-65
2023/05/30 02:18:41;;;;;;;0.50;0.50;;;;;;;18.57;100.00;99203.91;4972536;28;20200;-66
2023/05/30 02:21:07;;;;;;;0.40;0.40;;;;;;;18.51;100.00;99193.91;4972194;28;20673;-65
2023/05/30 02:23:34;;;;;;;0.50;0.50;;;;;;;18.49;100.00;99195.72;4972632;28;20226;-65
2023/05/30 02:26:01;;;;;;;0.73;0.57;;;;;;;18.49;100.00;99198.34;4955412;28;20235;-65
2023/05/30 02:28:28;;;;;;;0.47;0.47;;;;;;;18.34;100.00;99186.38;4951572;28;20593;-65
2023/05/30 02:30:55;;;;;;;0.50;0.50;;;;;;;18.41;100.00;99197.19;4953850;28;20211;-66
2023/05/30 02:33:23;;;;;;;0.60;0.60;;;;;;;18.39;100.00;99199.84;4953172;28;20263;-65
2023/05/30 02:35:50;;;;;;;0.40;0.40;;;;;;;18.39;100.00;99199.84;4953607;29;20200;-66
2023/05/30 02:38:16;;;;;;;0.40;0.40;;;;;;;18.41;100.00;99198.03;4954788;28;20271;-66
2023/05/30 02:40:43;;;;;;;0.53;0.53;;;;;;;18.42;100.00;99209.25;4954949;28;20204;-66
2023/05/30 02:43:10;;;;;;;0.70;0.70;;;;;;;18.45;100.00;99209.03;4953832;28;20227;-65
2023/05/30 02:45:37;;;;;;;0.50;0.50;;;;;;;18.36;100.00;99195.72;4952967;29;20204;-66
2023/05/30 02:48:04;;;;;;;0.40;0.40;;;;;;;18.50;100.00;99213.00;4953027;29;20271;-66
2023/05/30 02:50:32;;;;;;;0.40;0.40;;;;;;;18.52;100.00;99218.09;4952590;28;20213;-65
2023/05/30 02:52:59;;;;;;;0.67;0.67;;;;;;;18.54;100.00;99219.69;4953411;28;20743;-66
2023/05/30 02:55:26;;;;;;;0.40;0.40;;;;;;;18.54;100.00;99219.69;4953294;28;20241;-66
2023/05/30 02:57:52;;;;;;;0.50;0.50;;;;;;;18.48;100.00;99212.22;4952527;28;20204;-65
2023/05/30 03:00:20;;;;;;;0.47;0.47;;;;;;;18.46;100.00;99215.88;4951921;29;20205;-66
2023/05/30 03:02:47;;;;;;;0.60;0.60;;;;;;;18.55;100.00;99229.09;4952732;28;20202;-66
2023/05/30 03:05:14;;;;;;;0.60;0.60;;;;;;;18.52;100.00;99234.50;4953058;28;20223;-66
2023/05/30 03:07:42;;;;;;;0.47;0.47;;;;;;;18.39;100.00;99212.84;4954640;28;20277;-65
2023/05/30 03:10:10;;;;;;;0.50;0.50;;;;;;;18.46;100.00;99226.25;4952126;28;20212;-65
2023/05/30 03:12:37;;;;;;;0.50;0.50;;;;;;;18.42;100.00;99235.19;4953383;28;20209;-65
2023/05/30 03:15:04;;;;;;;0.43;0.43;;;;;;;18.37;100.00;99227.69;4951826;28;20208;-66
2023/05/30 03:17:31;;;;;;;0.60;0.60;;;;;;;18.38;100.00;99221.56;4952972;28;20628;-66
2023/05/30 03:19:58;;;;;;;0.40;0.40;;;;;;;18.29;100.00;99224.75;4952288;29;20210;-65
2023/05/30 03:22:25;;;;;;;0.40;0.40;;;;;;;18.31;100.00;99228.09;4951610;28;20299;-66
2023/05/30 03:24:53;;;;;;;0.50;0.50;;;;;;;18.24;100.00;99226.81;4959821;28;20228;-66
2023/05/30 03:27:20;;;;;;;0.63;0.63;;;;;;;18.23;100.00;99225.13;4971283;28;20214;-66
2023/05/30 03:29:47;;;;;;;0.43;0.43;;;;;;;18.22;100.00;99229.50;4964207;28;20204;-65
2023/05/30 03:32:13;;;;;;;0.60;0.60;;;;;;;18.20;100.00;99226.16;4970632;28;20564;-66
2023/05/30 03:34:40;;;;;;;0.63;0.63;;;;;;;18.18;100.00;99237.59;4971573;28;20216;-66
2023/05/30 03:37:07;;;;;;;0.53;0.53;;;;;;;18.21;100.00;99232.19;4971624;28;20215;-66
2023/05/30 03:39:34;;;;;;;0.40;0.40;;;;;;;18.24;100.00;99230.25;4971394;28;20314;-66
2023/05/30 03:42:02;;;;;;;0.60;0.60;;;;;;;18.28;100.00;99233.47;4970581;28;20218;-65
2023/05/30 03:44:29;;;;;;;0.40;0.40;;;;;;;18.31;100.00;99230.69;4971087;28;20232;-65
2023/05/30 03:46:56;;;;;;;0.50;0.50;;;;;;;18.32;100.00;99230.56;4971260;28;20200;-66
2023/05/30 03:49:22;;;;;;;0.47;0.47;;;;;;;18.23;100.00;99217.34;4970678;28;20200;-66
2023/05/30 03:51:49;;;;;;;0.50;0.50;;;;;;;18.35;100.00;99253.72;4970784;28;20203;-66
2023/05/30 03:54:16;;;;;;;0.50;0.50;;;;;;;18.34;100.00;99249.50;4970621;28;20208;-66
2023/05/30 03:56:42;;;;;;;0.50;0.50;;;;;;;18.35;100.00;99255.50;4970801;28;20199;-66
2023/05/30 03:59:11;;;;;;;0.50;0.50;;;;;;;18.37;100.00;99248.44;4970732;28;20201;-66
2023/05/30 04:01:37;;;;;;;0.50;0.50;;;;;;;18.36;100.00;99257.16;4970413;28;20209;-66
2023/05/30 04:04:04;;;;;;;0.40;0.40;;;;;;;18.36;100.00;99252.81;4970566;28;20699;-66
2023/05/30 04:06:31;;;;;;;0.63;0.63;;;;;;;18.39;100.00;99246.56;4971130;28;20704;-65
2023/05/30 04:09:01;;;;;;;0.40;0.40;;;;;;;18.34;100.00;99248.66;4970367;28;20914;-66
2023/05/30 04:11:28;;;;;;;0.43;0.43;;;;;;;18.38;100.00;99255.31;4969296;28;20215;-65
2023/05/30 04:13:54;;;;;;;0.40;0.40;;;;;;;18.38;100.00;99263.09;4970589;28;20197;-66
2023/05/30 04:16:23;;;;;;;0.70;0.70;;;;;;;18.32;100.00;99260.88;4970714;28;20338;-66
2023/05/30 04:18:49;;;;;;;0.50;0.50;;;;;;;18.35;100.00;99265.91;4971049;28;20214;-65
2023/05/30 04:21:16;;;;;;;0.67;0.50;;;;;;;18.36;100.00;99270.13;4970214;28;20215;-65
2023/05/30 04:23:43;;;;;;;0.60;0.60;;;;;;;18.29;100.00;99251.53;4968102;28;20715;-65
2023/05/30 04:26:11;;;;;;;0.60;0.60;;;;;;;18.27;100.00;99257.75;4950856;28;21115;-66
2023/05/30 04:28:39;;;;;;;0.60;0.60;;;;;;;18.18;100.00;99253.16;4963009;28;20209;-66
2023/05/30 04:31:06;;;;;;;0.50;0.50;;;;;;;18.19;100.00;99260.03;4950894;28;20294;-66
2023/05/30 04:33:35;;;;;;;0.40;0.40;;;;;;;18.19;100.00;99267.81;4957526;28;20212;-66
2023/05/30 04:36:05;;;;;;;0.47;0.47;;;;;;;18.16;100.00;99273.16;4956193;28;20215;-65
2023/05/30 04:38:32;;;;;;;0.60;0.60;;;;;;;18.18;100.00;99268.72;4964436;28;20230;-65
2023/05/30 04:41:01;;;;;;;0.50;0.50;;;;;;;18.24;100.00;99268.34;4969382;28;20572;-66
2023/05/30 04:43:29;;;;;;;0.40;0.40;;;;;;;18.27;100.00;99268.13;4967375;28;20236;-66
2023/05/30 04:45:56;;;;;;;0.57;0.57;;;;;;;18.28;100.00;99275.00;4970624;28;20206;-66
2023/05/30 04:48:22;;;;;;;0.50;0.50;;;;;;;18.31;100.00;99277.41;4970870;28;20212;-66
2023/05/30 04:50:51;;;;;;;0.50;0.50;;;;;;;18.38;100.00;99281.28;4965754;28;20210;-66
2023/05/30 04:53:20;;;;;;;0.40;0.40;;;;;;;18.45;100.00;99281.72;4968810;28;20217;-66
2023/05/30 04:55:47;;;;;;;0.47;0.47;;;;;;;18.50;100.00;99280.50;4969837;28;20204;-66
2023/05/30 04:58:15;;;;;;;0.60;0.60;;;;;;;18.59;100.00;99284.25;4968656;28;20874;-65
2023/05/30 05:00:42;;;;;;;0.60;0.60;;;;;;;18.54;100.00;99276.78;4969537;28;20720;-66
2023/05/30 05:03:09;;;;;;;0.50;0.50;;;;;;;18.67;100.00;99293.25;4969046;28;20298;-66
2023/05/30 05:05:36;;;;;;;0.50;0.50;;;;;;;18.65;100.00;99304.63;4968899;28;20232;-66
2023/05/30 05:08:04;;;;;;;0.50;0.50;;;;;;;18.58;100.00;99296.41;4969522;28;20688;-66
2023/05/30 05:10:31;;;;;;;0.57;0.57;;;;;;;18.58;100.00;99301.59;4966575;28;20212;-66
2023/05/30 05:12:58;;;;;;;0.50;0.50;;;;;;;18.52;100.00;99304.59;4968304;28;20212;-65
2023/05/30 05:15:25;;;;;;;0.60;0.60;;;;;;;18.49;100.00;99314.31;4973733;28;20203;-65
2023/05/30 05:17:52;;;;;;;0.50;0.50;;;;;;;18.49;100.00;99309.97;4973330;28;20594;-66
2023/05/30 05:20:19;;;;;;;0.50;0.50;;;;;;;18.49;100.00;99309.97;4971944;28;20218;-66
2023/05/30 05:22:45;;;;;;;0.60;0.60;;;;;;;18.49;100.00;99325.53;4972518;28;20207;-66
2023/05/30 05:25:13;;;;;;;0.40;0.40;;;;;;;18.48;100.00;99318.66;4970490;28;20229;-66
2023/05/30 05:27:42;;;;;;;0.43;0.43;;;;;;;18.43;100.00;99310.34;4967399;28;20204;-65
2023/05/30 05:30:10;;;;;;;0.70;0.70;;;;;;;18.43;100.00;99309.50;4952326;28;20337;-66
2023/05/30 05:32:38;;;;;;;0.60;0.60;;;;;;;18.50;100.00;99316.84;4956880;28;20215;-66
2023/05/30 05:35:07;;;;;;;0.50;0.50;;;;;;;18.41;100.00;99307.03;4966950;28;20204;-66
2023/05/30 05:37:34;;;;;;;0.50;0.50;;;;;;;18.50;100.00;99321.22;4972588;28;20213;-66
2023/05/30 05:40:04;;;;;;;0.70;0.70;;;;;;;18.50;100.00;99322.03;4971560;28;20236;-66
2023/05/30 05:42:32;;;;;;;0.53;0.53;;;;;;;18.48;100.00;99330.84;4970096;28;20199;-66
2023/05/30 05:44:59;;;;;;;0.53;0.53;;;;;;;18.53;100.00;99321.84;4972639;28;20236;-66
2023/05/30 05:47:26;;;;;;;0.50;0.50;;;;;;;18.57;100.00;99328.53;4972073;28;20204;-65
2023/05/30 05:49:52;;;;;;;0.80;0.80;;;;;;;18.61;100.00;99324.78;4972739;28;20206;-65
2023/05/30 05:52:20;;;;;;;0.50;0.50;;;;;;;18.64;100.00;99323.78;4971058;28;20607;-65
2023/05/30 05:54:47;;;;;;;0.40;0.40;;;;;;;18.67;100.00;99323.56;4971613;28;20794;-65
2023/05/30 05:57:13;;;;;;;0.90;0.90;;;;;;;18.64;100.00;99326.38;4970296;28;20262;-65
2023/05/30 05:59:42;;;;;;;0.60;0.60;;;;;;;18.69;100.00;99327.72;4971795;28;20645;-65
2023/05/30 06:02:08;;;;;;;0.50;0.50;;;;;;;18.75;100.00;99332.53;4972046;28;20614;-66
2023/05/30 06:04:36;;;;;;;0.40;0.40;;;;;;;18.83;100.00;99335.47;4972200;28;20235;-67
2023/05/30 06:07:03;;;;;;;0.50;0.50;;;;;;;18.86;100.00;99340.47;4971705;28;20214;-67
2023/05/30 06:09:31;;;;;;;0.50;0.50;;;;;;;18.91;100.00;99334.13;4972551;28;20230;-67
2023/05/30 06:11:59;;;;;;;0.40;0.40;;;;;;;18.95;100.00;99338.19;4971370;28;20317;-66
2023/05/30 06:14:26;;;;;;;0.57;0.57;;;;;;;19.04;100.00;99340.19;4972324;28;20288;-65
2023/05/30 06:16:54;;;;;;;0.70;0.70;;;;;;;19.02;100.00;99329.06;4971824;28;20296;-66
2023/05/30 06:19:21;;;;;;;0.50;0.50;;;;;;;19.14;100.00;99349.88;4970175;28;20213;-65
2023/05/30 06:21:48;;;;;;;0.60;0.60;;;;;;;19.19;100.00;99349.59;4970200;28;20214;-65
2023/05/30 06:24:15;;;;;;;0.50;0.50;;;;;;;19.22;100.00;99346.78;4971218;28;20227;-64
2023/05/30 06:26:42;;;;;;;0.50;0.50;;;;;;;19.32;100.00;99348.63;4972924;28;20272;-65
2023/05/30 06:29:09;;;;;;;0.50;0.50;;;;;;;19.38;100.00;99353.47;4971519;28;20215;-65
2023/05/30 06:31:35;;;;;;;0.50;0.50;;;;;;;19.47;100.00;99348.59;4972517;28;20210;-65
2023/05/30 06:34:03;;;;;;;0.87;0.87;;;;;;;19.51;100.00;99357.88;4971161;28;20200;-64
2023/05/30 06:36:31;;;;;;;0.40;0.40;;;;;;;19.58;100.00;99354.72;4970802;28;20223;-65
2023/05/30 06:38:58;;;;;;;0.50;0.50;;;;;;;19.72;100.00;99353.78;4971156;28;20309;-59
2023/05/30 06:41:26;;;;;;;0.60;0.60;;;;;;;19.75;100.00;99364.00;4970350;28;20274;-60
2023/05/30 06:43:52;;;;;;;0.50;0.50;;;;;;;19.74;100.00;99360.56;4968288;28;20215;-60
2023/05/30 06:46:20;;;;;;;0.43;0.43;;;;;;;19.78;100.00;99358.56;4968651;28;20204;-60
2023/05/30 06:48:46;;;;;;;0.50;0.50;;;;;;;19.85;100.00;99357.22;4969507;28;20220;-60
2023/05/30 06:51:15;;;;;;;0.50;0.50;;;;;;;19.95;100.00;99367.81;4968457;28;20238;-64
2023/05/30 06:53:42;;;;;;;0.40;0.40;;;;;;;20.02;100.00;99369.91;4971189;28;20630;-64
2023/05/30 06:56:08;;;;;;;0.43;0.43;;;;;;;19.99;100.00;99358.88;4971476;28;20286;-64
2023/05/30 06:58:35;;;;;;;0.37;0.37;;;;;;;20.07;100.00;99367.81;4970709;28;20277;-63
2023/05/30 07:01:02;;;;;;;0.60;0.60;;;;;;;20.07;100.00;99373.00;4970686;28;20214;-64
2023/05/30 07:03:28;;;;;;;0.40;0.40;;;;;;;20.16;100.00;99382.78;4971270;28;21550;-64
2023/05/30 07:05:55;;;;;;;0.40;0.40;;;;;;;20.24;100.00;99379.66;4968227;28;20254;-63
2023/05/30 07:08:23;;;;;;;0.40;0.40;;;;;;;20.31;100.00;99389.56;4970108;28;20234;-63
2023/05/30 07:10:50;;;;;;;0.43;0.43;;;;;;;20.42;100.00;99391.41;4970769;28;20206;-64
2023/05/30 07:13:17;;;;;;;0.50;0.50;;;;;;;20.49;100.00;99387.44;4970521;28;20257;-63
2023/05/30 07:15:44;;;;;;;0.40;0.40;;;;;;;20.48;100.00;99388.38;4970652;28;20293;-64
2023/05/30 07:18:11;;;;;;;0.40;0.40;;;;;;;20.52;100.00;99394.22;4963311;28;20218;-66
2023/05/30 07:20:37;;;;;;;0.50;0.50;;;;;;;20.53;100.00;99396.69;4961763;28;20747;-65
2023/05/30 07:23:04;;;;;;;0.40;0.40;;;;;;;20.63;100.00;99396.88;4966614;28;20654;-65
2023/05/30 07:25:32;;;;;;;0.30;0.30;;;;;;;20.73;100.00;99403.94;4962016;28;20227;-66
2023/05/30 07:28:00;;;;;;;0.40;0.40;;;;;;;20.82;100.00;99403.25;4970266;28;20568;-65
2023/05/30 07:30:27;;;;;;;0.60;0.60;;;;;;;20.89;100.00;99401.88;4967793;28;20656;-66
2023/05/30 07:32:54;;;;;;;0.50;0.50;;;;;;;20.94;100.00;99401.53;4954098;28;20349;-66
2023/05/30 07:35:21;;;;;;;0.30;0.30;;;;;;;21.02;100.00;99404.44;4968355;28;20667;-66
2023/05/30 07:37:48;;;;;;;0.50;0.50;;;;;;;21.12;100.00;99402.84;4960438;28;20211;-65
2023/05/30 07:40:17;;;;;;;0.60;0.60;;;;;;;21.18;100.00;99404.16;4955105;28;20211;-64
2023/05/30 07:42:46;;;;;;;0.40;0.40;;;;;;;21.25;100.00;99408.81;4962680;28;20322;-64
2023/05/30 07:45:13;;;;;;;0.47;0.47;;;;;;;21.33;100.00;99413.47;4960622;28;20746;-65
2023/05/30 07:47:40;;;;;;;0.50;0.50;;;;;;;21.31;100.00;99408.38;4955710;28;20204;-64
2023/05/30 07:50:08;;;;;;;0.40;0.40;;;;;;;21.32;100.00;99417.03;4969939;28;20683;-65
2023/05/30 07:52:36;;;;;;;0.60;0.60;;;;;;;21.37;100.00;99414.91;4967926;28;20199;-66
2023/05/30 07:55:03;;;;;;;0.50;0.50;;;;;;;21.42;100.00;99412.81;4966547;28;20211;-66
2023/05/30 07:57:30;;;;;;;0.50;0.50;;;;;;;21.45;100.00;99413.38;4969472;28;20207;-66
2023/05/30 07:59:58;;;;;;;0.40;0.40;;;;;;;21.46;100.00;99419.44;4970025;28;20737;-65
2023/05/30 08:02:25;;;;;;;0.37;0.37;;;;;;;21.47;100.00;99415.88;4971440;28;20674;-65
2023/05/30 08:04:52;;;;;;;0.30;0.30;;;;;;;21.48;100.00;99424.53;4970950;28;20627;-65
2023/05/30 08:07:19;;;;;;;0.60;0.60;;;;;;;21.47;100.00;99421.09;4969025;28;20215;-65
2023/05/30 08:09:46;;;;;;;0.50;0.50;;;;;;;21.50;100.00;99426.09;4965549;28;20723;-65
2023/05/30 08:12:18;;;;;;;0.60;0.60;;;;;;;21.57;100.00;99421.25;4958117;28;20665;-65
2023/05/30 08:14:45;;;;;;;0.50;0.50;;;;;;;21.55;100.00;99418.75;4956523;28;20196;-64
2023/05/30 08:17:15;;;;;;;0.50;0.50;;;;;;;21.55;100.00;99413.53;4963699;28;20310;-65
2023/05/30 08:19:42;;;;;;;0.87;0.87;;;;;;;21.34;100.00;99409.91;4964438;28;20719;-65
2023/05/30 08:22:10;;;;;;;0.80;0.80;;;;;;;21.33;100.00;99419.50;4961613;28;20306;-65
2023/05/30 08:24:36;;;;;;;0.53;0.53;;;;;;;21.39;100.00;99423.44;4960055;28;20240;-65
2023/05/30 08:27:04;;;;;;;0.50;0.50;;;;;;;21.43;100.00;99420.50;4969443;28;20211;-65
2023/05/30 08:29:31;;;;;;;0.50;0.50;;;;;;;21.54;100.00;99422.31;4968204;28;20291;-66
2023/05/30 08:31:58;;;;;;;0.63;0.63;;;;;;;21.57;100.00;99427.31;4970220;28;20212;-65
2023/05/30 08:34:26;;;;;;;0.50;0.50;;;;;;;21.48;100.00;99428.00;4970868;28;20207;-65
2023/05/30 08:36:53;;;;;;;0.33;0.33;;;;;;;21.52;100.00;99424.19;4970864;28;20212;-67
2023/05/30 08:39:20;;;;;;;0.50;0.50;;;;;;;21.57;100.00;99427.31;4967580;28;20208;-66
2023/05/30 08:41:47;;;;;;;0.30;0.30;;;;;;;21.34;100.00;99383.84;4969672;28;20211;-66
2023/05/30 08:44:14;;;;;;;0.63;0.63;;;;;;;21.61;100.00;99414.84;4972108;28;20211;-66
2023/05/30 08:46:42;;;;;;;0.40;0.40;;;;;;;21.54;100.00;99422.31;4971143;28;20602;-66
2023/05/30 08:49:12;;;;;;;0.60;0.60;;;;;;;21.61;100.00;99426.13;4972342;28;20207;-66
2023/05/30 08:51:43;;;;;;;0.37;0.37;;;;;;;21.59;100.00;99414.13;4976025;28;20619;-66
2023/05/30 08:54:16;;;;;;;0.60;0.60;;;;;;;21.57;100.00;99427.31;4975914;28;20663;-66
2023/05/30 08:56:47;;;;;;;0.40;0.40;;;;;;;21.44;100.00;99416.13;4974522;28;20291;-66
2023/05/30 08:59:16;;;;;;;0.70;0.70;;;;;;;21.32;100.00;99422.25;4974929;28;20210;-66
2023/05/30 09:01:44;;;;;;;0.50;0.50;;;;;;;21.17;100.00;99412.94;4974878;28;20195;-65
2023/05/30 09:04:12;;;;;;;0.70;0.70;;;;;;;20.98;100.00;99402.16;4962852;28;20716;-65
2023/05/30 09:06:42;;;;;;;0.60;0.60;;;;;;;21.12;100.00;99417.66;4962530;28;20223;-65
2023/05/30 09:09:13;;;;;;;0.40;0.40;;;;;;;21.12;100.00;99421.09;4967642;28;20679;-65
2023/05/30 09:11:40;;;;;;;0.50;0.50;;;;;;;21.15;100.00;99422.66;4974737;28;20239;-65
2023/05/30 09:14:08;;;;;;;0.60;0.60;;;;;;;21.19;100.00;99421.47;4966590;28;20210;-65
2023/05/30 09:16:35;;;;;;;0.50;0.50;;;;;;;21.25;100.00;99421.03;4956200;28;20691;-66
2023/05/30 09:19:02;;;;;;;0.60;0.60;;;;;;;21.16;100.00;99417.34;4963397;28;20664;-65
2023/05/30 09:21:31;;;;;;;0.50;0.50;;;;;;;21.25;100.00;99421.03;4970042;28;20199;-65
2023/05/30 09:24:03;;;;;;;0.50;0.50;;;;;;;21.15;100.00;99401.78;4973059;28;20211;-65
2023/05/30 09:26:30;;;;;;;0.40;0.40;;;;;;;21.35;100.00;99422.84;4967796;28;20291;-65
2023/05/30 09:29:02;;;;;;;0.30;0.30;;;;;;;21.45;100.00;99426.41;4971107;28;20203;-67
2023/05/30 09:31:29;;;;;;;0.63;0.63;;;;;;;21.55;100.00;99428.38;4968659;28;20207;-67
2023/05/30 09:33:57;;;;;;;0.60;0.60;;;;;;;21.61;100.00;99426.13;4969089;28;20235;-67
2023/05/30 09:36:26;;;;;;;0.60;0.60;;;;;;;21.55;100.00;99429.16;4972361;28;20212;-67
2023/05/30 09:38:57;;;;;;;0.50;0.50;;;;;;;21.63;100.00;99426.84;4969406;28;20199;-67
2023/05/30 09:41:28;;;;;;;0.40;0.40;;;;;;;21.70;100.00;99428.03;4968796;28;20214;-67
2023/05/30 09:43:55;;;;;;;0.40;0.40;;;;;;;21.75;100.00;99420.69;4968916;28;20560;-67
2023/05/30 09:46:23;;;;;;;0.43;0.43;;;;;;;21.80;100.00;99415.13;4970926;28;20309;-66
2023/05/30 09:48:50;;;;;;;0.60;0.60;;;;;;;21.84;100.00;99419.97;4974366;28;20231;-65
2023/05/30 09:51:18;;;;;;;0.70;0.70;;;;;;;21.91;100.00;99410.78;4972967;28;20211;-64
2023/05/30 09:54:00;;;;;;;0.57;0.57;;;;;;;21.95;100.00;99407.00;4969878;28;20207;-64
2023/05/30 09:56:35;;;;;;;0.60;0.60;;;;;;;21.94;100.00;99407.09;4966817;28;20697;-64
2023/05/30 09:59:06;;;;;;;0.40;0.40;;;;;;;21.97;100.00;99399.06;4968058;28;20457;-63
2023/05/30 10:01:37;;;;;;;0.40;0.40;;;;;;;22.04;100.00;99400.22;4972566;28;20447;-61
2023/05/30 10:04:12;;;;;;;0.40;0.40;;;;;;;22.19;100.00;99400.81;4970438;28;20203;-61
2023/05/30 10:06:41;;;;;;;0.40;0.40;;;;;;;22.23;100.00;99391.81;4971994;28;20306;-61
2023/05/30 10:09:08;;;;;;;0.73;0.73;;;;;;;22.21;100.00;99372.81;4974058;28;20734;-61
2023/05/30 10:11:38;;;;;;;0.40;0.40;;;;;;;22.35;100.00;99383.00;4973885;28;20203;-61
2023/05/30 10:14:05;;;;;;;0.40;0.40;;;;;;;22.35;100.00;99393.47;4973429;28;20238;-61
2023/05/30 10:16:34;;;;;;;0.40;0.40;;;;;;;22.38;100.00;99388.81;4973684;28;20262;-61
2023/05/30 10:19:03;;;;;;;0.30;0.30;;;;;;;22.43;100.00;99385.84;4968880;28;20290;-61
2023/05/30 10:21:32;;;;;;;0.40;0.40;;;;;;;22.42;100.00;99395.44;4969400;28;20294;-61
2023/05/30 10:24:00;;;;;;;0.40;0.40;;;;;;;22.49;100.00;99395.78;4972977;28;20199;-63
2023/05/30 10:26:31;;;;;;;0.60;0.60;;;;;;;22.45;100.00;99397.84;4971824;28;20238;-61
2023/05/30 10:29:02;;;;;;;0.40;0.40;;;;;;;22.44;100.00;99403.19;4971041;28;20211;-62
2023/05/30 10:31:32;;;;;;;0.50;0.50;;;;;;;22.34;100.00;99381.34;4973574;28;20298;-62
2023/05/30 10:34:02;;;;;;;0.27;0.27;;;;;;;22.40;100.00;99389.53;4972476;28;20199;-61
2023/05/30 10:36:29;;;;;;;0.40;0.40;;;;;;;22.45;100.00;99394.41;4973432;28;20226;-61
2023/05/30 10:39:09;;;;;;;0.40;0.40;;;;;;;22.48;100.00;99394.16;4972169;28;20207;-62
2023/05/30 10:41:42;;;;;;;0.50;0.50;;;;;;;22.48;100.00;99389.75;4970956;28;20641;-62
2023/05/30 10:44:17;;;;;;;0.30;0.30;;;;;;;22.54;100.00;99392.84;4973307;28;20203;-62
2023/05/30 10:46:52;;;;;;;0.40;0.40;;;;;;;22.64;100.00;99392.00;4972594;28;20269;-61
2023/05/30 10:49:23;;;;;;;0.50;0.50;;;;;;;22.75;100.00;99397.19;4973017;28;20689;-62
2023/05/30 10:52:01;;;;;;;0.40;0.40;;;;;;;22.76;100.00;99390.19;4972930;28;20294;-61
2023/05/30 10:54:30;;;;;;;0.40;0.40;;;;;;;22.73;100.00;99393.88;4961752;28;20650;-62
2023/05/30 10:56:57;;;;;;;0.60;0.60;;;;;;;22.73;100.00;99393.06;4964960;28;20283;-61
2023/05/30 10:59:26;;;;;;;0.40;0.40;;;;;;;22.74;100.00;99390.34;4970718;28;20206;-62
2023/05/30 11:02:01;;;;;;;0.80;0.80;;;;;;;22.73;100.00;99386.06;4972438;28;20218;-61
2023/05/30 11:04:34;;;;;;;0.70;0.70;;;;;;;22.80;100.00;99382.00;4968549;28;20238;-61
2023/05/30 11:07:03;;;;;;;0.30;0.30;;;;;;;22.85;100.00;99386.84;4972029;28;20457;-66
2023/05/30 11:09:30;;;;;;;0.30;0.30;;;;;;;23.02;100.00;99384.53;4971439;28;20258;-65
2023/05/30 11:11:58;;;;;;;0.53;0.53;;;;;;;23.05;100.00;99364.31;4968438;28;20207;-64
2023/05/30 11:14:27;;;;;;;0.37;0.37;;;;;;;23.25;100.00;99374.78;4958162;28;20200;-65
2023/05/30 11:17:00;;;;;;;0.40;0.40;;;;;;;23.40;100.00;99375.31;4961874;28;20200;-64
2023/05/30 11:19:36;;;;;;;0.40;0.40;;;;;;;23.49;97.11;99366.72;4969050;28;20682;-65
2023/05/30 11:22:05;;;;;;;0.50;0.50;;;;;;;23.59;98.96;99372.03;4970251;28;20211;-65
2023/05/30 11:24:32;;;;;;;0.50;0.50;;;;;;;23.69;99.59;99357.19;4972265;28;20702;-65
2023/05/30 11:27:07;;;;;;;0.30;0.30;;;;;;;23.75;98.74;99352.25;4972465;28;20223;-65
2023/05/30 11:29:38;;;;;;;0.30;0.30;;;;;;;23.75;94.48;99367.97;4969774;28;20281;-65